This is the latest recevied weather packets stored in our database for station/object R2AKT-13. If no packets are shown the sender has not sent any weather packets the latest 10 day(s).
| Time | Temp. | Humidity | Pressure | Rain* | Wind** | Luminosity | Snow |
|---|---|---|---|---|---|---|---|
| 1777473389 | 2.78° C | 66% | 993.6 hPa | - | 2.24 m/s, 311° | - | - |
| 1777472814 | 2.78° C | 65% | 993.5 hPa | - | 0.45 m/s, 184° | - | - |
| 1777472334 | 2.22° C | 65% | 993.6 hPa | - | 1.79 m/s, 251° | - | - |
| 1777471809 | 2.78° C | 63% | 993.3 hPa | - | 2.68 m/s, 268° | - | - |
| 1777469614 | 2.78° C | 66% | 993.1 hPa | - | 1.34 m/s, 292° | - | - |
| 1777469034 | 2.78° C | 66% | 993 hPa | - | 0.89 m/s, 240° | - | - |
| 1777468444 | 2.22° C | 66% | 993 hPa | - | 2.68 m/s, 271° | - | - |
| 1777467900 | 2.78° C | 66% | 992.8 hPa | - | 0.89 m/s, 183° | - | - |
| 1777466148 | 2.22° C | 67% | 992.8 hPa | - | 1.79 m/s, 267° | - | - |
| 1777465584 | 1.67° C | 70% | 992.7 hPa | - | 1.79 m/s, 272° | - | - |
| 1777465104 | 1.67° C | 69% | 992.6 hPa | - | 3.58 m/s, 263° | - | - |
| 1777464554 | 2.78° C | 66% | 992.4 hPa | - | 1.34 m/s, 213° | - | - |
| 1777463954 | 2.78° C | 65% | 992.2 hPa | - | 2.24 m/s, 197° | - | - |
| 1777462420 | 1.67° C | 71% | 992.1 hPa | - | 3.13 m/s, 268° | - | - |
| 1777461848 | 2.78° C | 68% | 991.9 hPa | - | 2.68 m/s, 294° | - | - |
| 1777461328 | 2.78° C | 66% | 991.9 hPa | - | 1.79 m/s, 231° | - | - |
| 1777460814 | 2.22° C | 68% | 992 hPa | - | 1.34 m/s, 238° | - | - |
| 1777460224 | 2.22° C | 68% | 992 hPa | - | 2.24 m/s, 241° | - | - |
| 1777459634 | 1.67° C | 72% | 991.7 hPa | - | 2.68 m/s, 241° | - | - |
| 1777459128 | 2.22° C | 72% | 991.3 hPa | - | 3.58 m/s, 291° | - | - |
| 1777458599 | 2.22° C | 70% | 991.4 hPa | - | 3.13 m/s, 292° | - | - |
| 1777458008 | 2.22° C | 73% | 991.2 hPa | - | 1.79 m/s, 208° | - | - |
| 1777457499 | 2.22° C | 76% | 991.2 hPa | - | 1.34 m/s, 211° | - | - |
| 1777456999 | 2.22° C | 75% | 991.1 hPa | - | 2.24 m/s, 223° | - | - |
| 1777456444 | 2.22° C | 72% | 991 hPa | - | 0.89 m/s, 184° | - | - |
* Rain since midnight (hover to see other rain measurements)
** Current wind speed in m/s (hover to see current wind gust speed)